Time;durP1;ratioP1;P1;durP2;ratioP2;P2;SDS_P1;SDS_P2;PMS_P1;PMS_P2;Temp;Humidity;BMP_temperature;BMP_pressure;BME280_temperature;BME280_humidity;BME280_pressure;Samples;Min_cycle;Max_cycle;Signal;HPM_P1;HPM_P2
2022/05/05 00:00:20;;;;;;;;;;;;;;;10.36;84.52;97042.63;30001;983;1868;-61
2022/05/05 00:00:51;;;;;;;;;;;;;;;10.36;84.77;97045.34;30001;983;1877;-60
2022/05/05 00:01:22;;;;;;;;;;;;;;;10.37;84.44;97052.37;30001;983;1882;-62
2022/05/05 00:01:53;;;;;;;;;;;;;;;10.36;84.83;97048.06;30001;982;1886;-60
2022/05/05 00:02:24;;;;;;;;;;;;;;;10.36;84.67;97048.88;30001;982;1881;-61
2022/05/05 00:02:54;;;;;;;;;;;;;;;10.38;84.81;97054.00;30001;982;1886;-62
2022/05/05 00:03:25;;;;;;;;;;;;;;;10.38;84.54;97046.69;30001;982;1882;-61
2022/05/05 00:03:56;;;;;;;;;;;;;;;10.39;84.63;97051.00;30001;982;1886;-60
2022/05/05 00:04:28;;;;;;;;;;;;;;;10.38;84.42;97054.81;30001;983;1881;-61
2022/05/05 00:04:59;;;;;;;;;;;;;;;10.38;84.95;97041.25;30001;983;1885;-62
2022/05/05 00:05:30;;;;;;;;;;;;;;;10.39;84.76;97045.56;30001;983;1868;-58
2022/05/05 00:06:00;;;;;;;;;;;;;;;10.39;84.79;97052.91;30001;983;1877;-61
2022/05/05 00:06:31;;;;;;;;;;;;;;;10.39;84.57;97048.28;30001;983;1881;-61
2022/05/05 00:07:03;;;;;;;;;;;;;;;10.40;84.62;97049.06;30001;983;1886;-60
2022/05/05 00:07:34;;;;;;;;;;;;;;;10.40;84.72;97049.06;30001;983;1868;-61
2022/05/05 00:08:05;;;;;;;;;;;;;;;10.42;84.71;97049.59;30001;983;1877;-61
2022/05/05 00:08:36;;;;;;;;;;;;;;;10.43;84.74;97047.69;30001;983;1881;-61
2022/05/05 00:09:07;;;;;;;;;;;;;;;10.43;84.48;97045.78;30001;983;1886;-62
2022/05/05 00:09:38;;;;;;;;;;;;;;;10.44;84.20;97044.69;30001;982;1882;-62
2022/05/05 00:14:32;;;;;;;;;;;;;;;10.57;82.39;97038.59;30001;983;1868;-58
2022/05/05 00:15:05;;;;;;;;;;;;;;;10.57;82.21;97038.59;30001;983;1877;-60
2022/05/05 00:15:36;;;;;;;;;;;;;;;10.57;82.42;97041.28;30001;983;1882;-58
2022/05/05 00:16:07;;;;;;;;;;;;;;;10.60;82.68;97048.84;30001;983;1886;-61
2022/05/05 00:16:38;;;;;;;;;;;;;;;10.60;82.42;97043.44;30001;983;1882;-61
2022/05/05 00:17:09;;;;;;;;;;;;;;;10.60;82.96;97048.84;30001;982;1873;-59
2022/05/05 00:17:40;;;;;;;;;;;;;;;10.61;82.83;97046.97;30001;982;1860;-61
2022/05/05 00:18:11;;;;;;;;;;;;;;;10.61;82.69;97044.25;30001;982;1886;-61
2022/05/05 00:18:42;;;;;;;;;;;;;;;10.62;82.65;97046.66;30001;982;1882;-60
2022/05/05 00:19:12;;;;;;;;;;;;;;;10.63;82.40;97042.06;30001;982;1886;-61
2022/05/05 00:19:43;;;;;;;;;;;;;;;10.64;82.32;97039.06;30001;983;1881;-60
2022/05/05 00:20:15;;;;;;;;;;;;;;;10.67;82.23;97051.22;30001;983;1886;-60
2022/05/05 00:20:46;;;;;;;;;;;;;;;10.69;81.95;97047.12;30001;983;1881;-60
2022/05/05 00:21:17;;;;;;;;;;;;;;;10.72;81.90;97046.56;30001;983;1885;-60
2022/05/05 00:21:50;;;;;;;;;;;;;;;10.75;81.59;97045.94;30001;983;1881;-61
2022/05/05 00:22:20;;;;;;;;;;;;;;;10.77;81.32;97047.56;30001;983;1873;-61
2022/05/05 00:22:51;;;;;;;;;;;;;;;10.79;81.13;97046.19;30001;983;1873;-60
2022/05/05 00:23:22;;;;;;;;;;;;;;;10.79;81.56;97043.47;30001;983;1886;-59
2022/05/05 00:23:54;;;;;;;;;;;;;;;10.79;81.14;97050.81;30001;982;1882;-59
2022/05/05 00:24:25;;;;;;;;;;;;;;;10.76;81.40;97044.03;30001;982;1886;-60
2022/05/05 00:24:55;;;;;;;;;;;;;;;10.73;81.51;97042.75;30001;982;1882;-62
2022/05/05 00:25:26;;;;;;;;;;;;;;;10.70;81.61;97046.03;30001;982;1886;-60
2022/05/05 00:25:57;;;;;;;;;;;;;;;10.66;82.11;97041.47;30001;982;1882;-62
2022/05/05 00:26:28;;;;;;;;;;;;;;;10.66;82.17;97047.72;30001;982;1886;-61
2022/05/05 00:26:59;;;;;;;;;;;;;;;10.66;81.87;97045.00;30001;983;1868;-62
2022/05/05 00:27:31;;;;;;;;;;;;;;;10.65;81.96;97040.66;30001;983;1876;-61
2022/05/05 00:28:03;;;;;;;;;;;;;;;10.64;81.65;97044.47;30001;983;1881;-62
2022/05/05 00:28:34;;;;;;;;;;;;;;;10.62;82.13;97040.44;30001;983;1885;-61
2022/05/05 00:29:05;;;;;;;;;;;;;;;10.62;81.93;97043.97;30001;983;1881;-61
2022/05/05 00:29:36;;;;;;;;;;;;;;;10.61;82.33;97046.97;30001;983;1886;-60
2022/05/05 00:30:07;;;;;;;;;;;;;;;10.60;82.54;97038.00;30001;983;1881;-60
2022/05/05 00:30:38;;;;;;;;;;;;;;;10.59;82.69;97041.81;30001;983;1873;-60
2022/05/05 00:31:09;;;;;;;;;;;;;;;10.57;82.75;97044.00;30001;982;1873;-61
2022/05/05 00:31:41;;;;;;;;;;;;;;;10.56;82.80;97047.81;30001;982;1886;-61
2022/05/05 00:32:13;;;;;;;;;;;;;;;10.56;82.74;97041.59;30001;982;1882;-61
2022/05/05 00:32:43;;;;;;;;;;;;;;;10.55;83.57;97040.78;30001;982;1886;-61
2022/05/05 00:33:14;;;;;;;;;;;;;;;10.55;84.38;97043.50;30001;982;1882;-62
2022/05/05 00:33:45;;;;;;;;;;;;;;;10.54;84.36;97038.34;30001;982;1886;-62
2022/05/05 00:34:16;;;;;;;;;;;;;;;10.52;83.78;97044.06;30001;982;1882;-62
2022/05/05 00:34:47;;;;;;;;;;;;;;;10.55;83.87;97035.34;30001;983;1885;-60
2022/05/05 00:35:18;;;;;;;;;;;;;;;10.59;83.07;97043.72;30001;983;1868;-62
2022/05/05 00:35:49;;;;;;;;;;;;;;;10.61;83.03;97050.47;30001;987;1877;-62
2022/05/05 00:36:20;;;;;;;;;;;;;;;10.61;82.98;97045.06;30001;983;1786;-61
2022/05/05 00:36:51;;;;;;;;;;;;;;;10.61;82.92;97042.34;30001;983;1873;-62
2022/05/05 00:37:22;;;;;;;;;;;;;;;10.62;82.56;97046.66;30001;974;1889;-62
2022/05/05 00:37:53;;;;;;;;;;;;;;;10.59;82.98;97041.81;30001;983;1886;-61
2022/05/05 00:38:25;;;;;;;;;;;;;;;10.58;82.58;97040.19;30001;983;1881;-62
2022/05/05 00:38:56;;;;;;;;;;;;;;;10.58;82.90;97051.06;30001;982;1886;-60
2022/05/05 00:39:27;;;;;;;;;;;;;;;10.55;82.83;97040.78;30001;982;1869;-58
2022/05/05 00:39:57;;;;;;;;;;;;;;;10.54;83.15;97039.16;30001;982;1877;-58
2022/05/05 00:40:28;;;;;;;;;;;;;;;10.54;82.81;97044.59;30001;982;1882;-61
2022/05/05 00:41:02;;;;;;;;;;;;;;;10.53;83.15;97042.97;30001;982;1886;-58
2022/05/05 00:41:33;;;;;;;;;;;;;;;10.51;83.45;97041.63;30001;982;1882;-61
2022/05/05 00:42:09;;;;;;;;;;;;;;;10.48;83.42;97040.31;30001;983;1885;-60
2022/05/05 00:42:40;;;;;;;;;;;;;;;10.46;83.62;97039.78;30001;983;1868;-61
2022/05/05 00:43:11;;;;;;;;;;;;;;;10.45;84.36;97040.06;30001;983;1877;-60
2022/05/05 00:43:42;;;;;;;;;;;;;;;10.43;83.94;97037.66;30001;983;1882;-58
2022/05/05 00:44:15;;;;;;;;;;;;;;;10.43;83.93;97040.34;30001;983;1885;-61
2022/05/05 00:44:46;;;;;;;;;;;;;;;10.41;83.93;97032.50;30001;983;1881;-60
2022/05/05 00:45:16;;;;;;;;;;;;;;;10.42;84.27;97036.03;30001;983;1886;-61
2022/05/05 00:45:47;;;;;;;;;;;;;;;10.40;84.15;97033.59;30001;983;1882;-61
2022/05/05 00:46:18;;;;;;;;;;;;;;;10.37;84.97;97034.22;30001;982;1886;-60
2022/05/05 00:46:50;;;;;;;;;;;;;;;10.35;84.89;97038.31;30001;982;1882;-60
2022/05/05 00:47:22;;;;;;;;;;;;;;;10.31;85.23;97029.13;30001;982;1873;-61
2022/05/05 00:48:03;;;;;;;;;;;;;;;10.30;85.21;97032.94;30001;982;1873;-60
2022/05/05 00:48:34;;;;;;;;;;;;;;;10.30;85.18;97032.94;30001;982;1886;-61
2022/05/05 00:49:08;;;;;;;;;;;;;;;10.31;84.69;97034.53;30001;983;1881;-61
2022/05/05 00:49:39;;;;;;;;;;;;;;;10.31;84.82;97037.25;30001;983;1885;-61
2022/05/05 00:50:11;;;;;;;;;;;;;;;10.32;84.79;97036.16;30001;983;1881;-62
2022/05/05 00:50:41;;;;;;;;;;;;;;;10.32;84.71;97036.16;30001;983;1872;-60
2022/05/05 00:51:15;;;;;;;;;;;;;;;10.32;84.62;97038.88;30001;983;1873;-62
2022/05/05 00:51:46;;;;;;;;;;;;;;;10.32;84.84;97036.16;30001;983;1885;-60
2022/05/05 00:52:17;;;;;;;;;;;;;;;10.31;84.58;97034.53;30001;983;1881;-60
2022/05/05 00:52:48;;;;;;;;;;;;;;;10.31;84.96;97034.53;30001;983;1886;-61
2022/05/05 00:53:20;;;;;;;;;;;;;;;10.30;84.72;97038.34;30001;983;1881;-61
2022/05/05 00:53:51;;;;;;;;;;;;;;;10.29;84.90;97042.16;30001;982;1886;-61
2022/05/05 00:54:22;;;;;;;;;;;;;;;10.30;84.95;97035.63;30001;982;1868;-61
2022/05/05 00:54:55;;;;;;;;;;;;;;;10.29;85.03;97036.72;30001;982;1877;-61
2022/05/05 00:55:26;;;;;;;;;;;;;;;10.27;85.54;97034.31;30001;982;1882;-61
2022/05/05 00:56:02;;;;;;;;;;;;;;;10.25;85.32;97035.69;30001;982;1886;-62
2022/05/05 00:56:33;;;;;;;;;;;;;;;10.24;84.90;97039.50;30001;983;1881;-61
2022/05/05 00:57:05;;;;;;;;;;;;;;;10.23;85.51;97037.88;30001;983;1886;-61
2022/05/05 00:57:37;;;;;;;;;;;;;;;10.23;85.46;97033.25;30001;983;1881;-61
2022/05/05 00:58:08;;;;;;;;;;;;;;;10.24;85.20;97039.50;30001;983;1886;-61
2022/05/05 00:58:39;;;;;;;;;;;;;;;10.24;85.48;97039.50;30001;983;1868;-62
2022/05/05 00:59:10;;;;;;;;;;;;;;;10.23;85.37;97035.97;30001;983;1877;-61
2022/05/05 00:59:42;;;;;;;;;;;;;;;10.22;84.95;97036.25;30001;983;1882;-62
2022/05/05 01:00:13;;;;;;;;;;;;;;;10.22;85.04;97038.97;30001;983;1886;-62
2022/05/05 01:00:44;;;;;;;;;;;;;;;10.22;84.92;97037.06;30001;983;1868;-58
2022/05/05 01:01:17;;;;;;;;;;;;;;;10.21;85.22;97040.88;30001;982;1877;-61
2022/05/05 01:01:48;;;;;;;;;;;;;;;10.21;85.10;97040.06;30001;982;1869;-61
2022/05/05 01:02:19;;;;;;;;;;;;;;;10.19;85.25;97031.38;30001;982;1877;-61
2022/05/05 01:02:51;;;;;;;;;;;;;;;10.18;85.18;97035.19;30001;982;1881;-61
2022/05/05 01:03:23;;;;;;;;;;;;;;;10.16;85.66;97037.38;30001;982;1886;-61
2022/05/05 01:03:54;;;;;;;;;;;;;;;10.15;85.04;97038.47;30001;983;1881;-58
2022/05/05 01:04:25;;;;;;;;;;;;;;;10.16;85.30;97042.78;30001;983;1885;-62
2022/05/05 01:04:57;;;;;;;;;;;;;;;10.15;85.44;97036.56;30001;983;1761;-60
2022/05/05 01:05:29;;;;;;;;;;;;;;;10.15;85.34;97036.56;30001;983;1877;-61
2022/05/05 01:06:00;;;;;;;;;;;;;;;10.15;85.10;97030.31;30001;983;1881;-60
2022/05/05 01:06:32;;;;;;;;;;;;;;;10.14;85.56;97039.56;30001;983;1872;-62
2022/05/05 01:07:04;;;;;;;;;;;;;;;10.14;85.13;97037.66;30001;983;1872;-61
2022/05/05 01:07:34;;;;;;;;;;;;;;;10.13;85.21;97032.50;30001;983;1886;-60
2022/05/05 01:08:06;;;;;;;;;;;;;;;10.13;84.88;97037.94;30001;983;1882;-61
2022/05/05 01:08:36;;;;;;;;;;;;;;;10.14;85.13;97034.94;30001;983;1886;-60
2022/05/05 01:09:07;;;;;;;;;;;;;;;10.13;84.78;97033.31;30001;982;1882;-60
2022/05/05 01:09:41;;;;;;;;;;;;;;;10.14;84.97;97039.56;30001;982;1886;-61
2022/05/05 01:10:12;;;;;;;;;;;;;;;10.14;84.77;97034.13;30001;982;1882;-60
2022/05/05 01:10:45;;;;;;;;;;;;;;;10.13;84.89;97037.94;30001;982;1873;-61
2022/05/05 01:11:16;;;;;;;;;;;;;;;10.13;84.92;97027.91;30001;982;1770;-60
2022/05/05 01:11:47;;;;;;;;;;;;;;;10.13;84.89;97035.22;30001;983;1885;-62
2022/05/05 01:12:20;;;;;;;;;;;;;;;10.13;85.02;97035.22;30001;983;1881;-60
2022/05/05 01:12:51;;;;;;;;;;;;;;;10.13;84.97;97035.22;30001;983;1886;-60
2022/05/05 01:13:22;;;;;;;;;;;;;;;10.14;84.78;97036.84;30001;983;1881;-58
2022/05/05 01:13:53;;;;;;;;;;;;;;;10.14;84.89;97036.84;30001;983;1886;-61
2022/05/05 01:14:23;;;;;;;;;;;;;;;10.14;85.21;97039.56;30001;983;1868;-59
2022/05/05 01:15:03;;;;;;;;;;;;;;;10.15;84.91;97043.87;30001;983;1877;-61
2022/05/05 01:15:36;;;;;;;;;;;;;;;10.17;84.53;97034.38;30001;983;1882;-60
2022/05/05 01:16:08;;;;;;;;;;;;;;;10.19;84.61;97039.50;30001;983;1886;-62
2022/05/05 01:16:40;;;;;;;;;;;;;;;10.18;84.53;97035.19;30001;982;1882;-61
2022/05/05 01:17:11;;;;;;;;;;;;;;;10.19;84.40;97042.22;30001;982;1873;-61
2022/05/05 01:17:42;;;;;;;;;;;;;;;10.17;84.35;97039.78;30001;982;1873;-61
2022/05/05 01:18:13;;;;;;;;;;;;;;;10.18;84.72;97046.84;30001;982;1886;-62
2022/05/05 01:18:44;;;;;;;;;;;;;;;10.17;84.13;97033.56;30001;982;1882;-61
2022/05/05 01:19:15;;;;;;;;;;;;;;;10.17;84.51;97038.97;30001;983;1885;-61
2022/05/05 01:19:46;;;;;;;;;;;;;;;10.18;84.44;97037.88;30001;983;1881;-61
2022/05/05 01:20:18;;;;;;;;;;;;;;;10.18;84.85;97037.88;30001;983;1885;-61
2022/05/05 01:20:51;;;;;;;;;;;;;;;10.19;84.32;97034.09;30001;983;1881;-61
2022/05/05 01:21:22;;;;;;;;;;;;;;;10.19;84.57;97037.63;30001;983;1886;-60
2022/05/05 01:21:55;;;;;;;;;;;;;;;10.19;84.45;97043.06;30001;983;1881;-60
2022/05/05 01:22:26;;;;;;;;;;;;;;;10.19;84.63;97036.78;30001;983;1873;-62
2022/05/05 01:22:57;;;;;;;;;;;;;;;10.18;84.51;97037.88;30001;983;1873;-60
2022/05/05 01:23:28;;;;;;;;;;;;;;;10.17;84.54;97034.38;30001;982;1886;-61
2022/05/05 01:23:58;;;;;;;;;;;;;;;10.18;84.43;97040.59;30001;982;1882;-60
2022/05/05 01:28:34;;;;;;;;;;;;;;;10.17;84.53;97044.41;30001;983;1872;-61
2022/05/05 01:29:08;;;;;;;;;;;;;;;10.17;85.21;97041.69;30001;983;1886;-61
2022/05/05 01:29:39;;;;;;;;;;;;;;;10.16;85.42;97037.38;30001;983;1881;-61
2022/05/05 01:30:10;;;;;;;;;;;;;;;10.15;85.61;97041.97;30001;987;1878;-62
2022/05/05 01:30:45;;;;;;;;;;;;;;;10.15;85.12;97043.87;30001;982;1886;-61
2022/05/05 01:31:20;;;;;;;;;;;;;;;10.14;85.35;97044.97;30001;982;1882;-60
2022/05/05 01:31:51;;;;;;;;;;;;;;;10.15;85.13;97043.87;30001;982;1886;-60
2022/05/05 01:32:29;;;;;;;;;;;;;;;10.15;85.29;97035.75;30001;982;1882;-61
2022/05/05 01:33:00;;;;;;;;;;;;;;;10.16;85.15;97042.78;30001;982;1873;-62
2022/05/05 01:33:31;;;;;;;;;;;;;;;10.17;85.11;97036.28;30001;982;1873;-61
2022/05/05 01:34:01;;;;;;;;;;;;;;;10.18;84.92;97046.03;30001;983;1885;-60
2022/05/05 01:34:32;;;;;;;;;;;;;;;10.19;84.92;97042.22;30001;983;1881;-61
2022/05/05 01:35:03;;;;;;;;;;;;;;;10.18;84.69;97040.59;30001;983;1886;-60
2022/05/05 01:35:34;;;;;;;;;;;;;;;10.18;84.83;97035.19;30001;983;1881;-61
2022/05/05 01:36:05;;;;;;;;;;;;;;;10.19;84.59;97042.22;30001;983;1885;-62
2022/05/05 01:36:36;;;;;;;;;;;;;;;10.18;84.78;97046.84;30001;983;1868;-62
2022/05/05 01:37:07;;;;;;;;;;;;;;;10.18;84.21;97044.13;30001;983;1877;-62
2022/05/05 01:37:38;;;;;;;;;;;;;;;10.17;84.54;97045.22;30001;983;1868;-61
2022/05/05 01:38:10;;;;;;;;;;;;;;;10.18;84.45;97044.13;30001;982;1877;-61
2022/05/05 01:38:43;;;;;;;;;;;;;;;10.19;84.47;97047.62;30001;982;1881;-61
2022/05/05 01:39:13;;;;;;;;;;;;;;;10.19;84.15;97053.91;30001;982;1886;-61
2022/05/05 01:39:46;;;;;;;;;;;;;;;10.19;84.65;97047.62;30001;982;1882;-62
2022/05/05 01:40:16;;;;;;;;;;;;;;;10.19;84.00;97047.62;30001;982;1886;-61
2022/05/05 01:40:47;;;;;;;;;;;;;;;10.19;84.43;97042.22;30001;982;1882;-61
2022/05/05 01:41:18;;;;;;;;;;;;;;;10.20;83.89;97049.28;30001;982;1886;-62
2022/05/05 01:41:49;;;;;;;;;;;;;;;10.20;84.45;97052.00;30001;983;1881;-60
2022/05/05 01:42:20;;;;;;;;;;;;;;;10.21;84.28;97050.91;30001;983;1885;-60
2022/05/05 01:42:51;;;;;;;;;;;;;;;10.21;84.21;97045.47;30001;983;1868;-61
2022/05/05 01:43:22;;;;;;;;;;;;;;;10.23;84.42;97054.16;30001;983;1877;-63
2022/05/05 01:43:53;;;;;;;;;;;;;;;10.23;84.40;97051.44;30001;983;1881;-62
2022/05/05 01:44:24;;;;;;;;;;;;;;;10.23;84.19;97052.25;30001;983;1886;-62
2022/05/05 01:44:54;;;;;;;;;;;;;;;10.23;84.14;97052.25;30001;983;1881;-61
2022/05/05 01:45:25;;;;;;;;;;;;;;;10.25;84.20;97051.97;30001;983;1886;-60
2022/05/05 01:45:56;;;;;;;;;;;;;;;10.25;84.14;97052.75;30001;982;1881;-62
2022/05/05 01:46:27;;;;;;;;;;;;;;;10.25;83.83;97046.53;30001;982;1886;-60
2022/05/05 01:46:58;;;;;;;;;;;;;;;10.25;84.10;97049.25;30001;982;1882;-62
2022/05/05 01:47:28;;;;;;;;;;;;;;;10.25;83.72;97057.38;30001;982;1886;-62
2022/05/05 01:47:59;;;;;;;;;;;;;;;10.26;83.91;97054.38;30001;982;1869;-60
2022/05/05 01:48:30;;;;;;;;;;;;;;;10.27;83.95;97049.75;30001;983;1877;-61
2022/05/05 01:49:01;;;;;;;;;;;;;;;10.27;84.07;97050.56;30001;983;1881;-62
2022/05/05 01:49:32;;;;;;;;;;;;;;;10.27;83.93;97052.47;30001;983;1872;-61
2022/05/05 01:50:03;;;;;;;;;;;;;;;10.27;83.97;97047.06;30001;983;1872;-61
2022/05/05 01:50:34;;;;;;;;;;;;;;;10.28;83.83;97045.97;30001;983;1885;-61
2022/05/05 01:51:06;;;;;;;;;;;;;;;10.29;84.15;97042.16;30001;983;1881;-62
2022/05/05 01:51:39;;;;;;;;;;;;;;;10.29;83.91;97053.00;30001;983;1886;-61
2022/05/05 01:52:10;;;;;;;;;;;;;;;10.29;84.09;97055.72;30001;983;1868;-62
2022/05/05 01:52:41;;;;;;;;;;;;;;;10.28;83.87;97054.91;30001;983;1877;-61
2022/05/05 01:53:12;;;;;;;;;;;;;;;10.29;84.18;97051.09;30001;983;1882;-58
2022/05/05 01:53:43;;;;;;;;;;;;;;;10.29;83.69;97053.81;30001;982;1886;-57
2022/05/05 01:54:14;;;;;;;;;;;;;;;10.28;84.30;97054.91;30001;982;1882;-61
2022/05/05 01:54:45;;;;;;;;;;;;;;;10.29;83.84;97047.56;30001;982;1886;-60
2022/05/05 01:55:15;;;;;;;;;;;;;;;10.27;83.88;97056.00;30001;982;1869;-59
2022/05/05 01:55:46;;;;;;;;;;;;;;;10.28;84.11;97051.37;30001;983;1876;-61
2022/05/05 01:56:17;;;;;;;;;;;;;;;10.28;83.99;97048.69;30001;983;1881;-61
2022/05/05 01:56:48;;;;;;;;;;;;;;;10.28;83.74;97052.19;30001;983;1886;-61
2022/05/05 01:57:19;;;;;;;;;;;;;;;10.29;84.07;97053.00;30001;983;1881;-61
2022/05/05 01:57:50;;;;;;;;;;;;;;;10.30;83.78;97049.19;30001;983;1886;-61
2022/05/05 01:58:23;;;;;;;;;;;;;;;10.31;84.02;97058.94;30001;983;1881;-61
2022/05/05 01:58:53;;;;;;;;;;;;;;;10.31;84.04;97050.81;30001;983;1873;-61
2022/05/05 01:59:27;;;;;;;;;;;;;;;10.30;84.06;97054.62;30001;983;1873;-61
2022/05/05 02:00:00;;;;;;;;;;;;;;;10.30;84.02;97050.00;30001;983;1886;-62
2022/05/05 02:00:31;;;;;;;;;;;;;;;10.31;83.96;97056.25;30001;983;1868;-59
2022/05/05 02:01:02;;;;;;;;;;;;;;;10.31;83.95;97053.53;30001;982;1877;-61
2022/05/05 02:01:33;;;;;;;;;;;;;;;10.30;83.82;97057.34;30001;982;1882;-60
2022/05/05 02:02:04;;;;;;;;;;;;;;;10.31;83.78;97057.03;30001;982;1873;-61
2022/05/05 02:02:35;;;;;;;;;;;;;;;10.30;84.27;97054.62;30001;982;1873;-60
2022/05/05 02:03:15;;;;;;;;;;;;;;;10.30;83.80;97054.62;30001;982;1886;-61
2022/05/05 02:03:46;;;;;;;;;;;;;;;10.30;84.26;97050.00;30001;983;1881;-61
2022/05/05 02:04:17;;;;;;;;;;;;;;;10.30;83.82;97054.62;30001;983;1885;-61
2022/05/05 02:04:48;;;;;;;;;;;;;;;10.29;83.95;97048.38;30001;983;1881;-62
2022/05/05 02:05:18;;;;;;;;;;;;;;;10.29;83.68;97047.56;30001;983;1885;-62
2022/05/05 02:05:49;;;;;;;;;;;;;;;10.30;84.22;97049.19;30001;983;1881;-61
2022/05/05 02:06:21;;;;;;;;;;;;;;;10.29;83.80;97050.28;30001;983;1886;-61
2022/05/05 02:06:52;;;;;;;;;;;;;;;10.27;84.21;97050.56;30001;983;1868;-61
2022/05/05 02:07:23;;;;;;;;;;;;;;;10.27;84.70;97044.34;30001;983;1877;-60
2022/05/05 02:07:54;;;;;;;;;;;;;;;10.25;84.70;97047.34;30001;983;1882;-60
2022/05/05 02:08:25;;;;;;;;;;;;;;;10.24;84.95;97051.16;30001;982;1886;-61
2022/05/05 02:08:57;;;;;;;;;;;;;;;10.24;85.08;97044.91;30001;982;1882;-60
2022/05/05 02:09:30;;;;;;;;;;;;;;;10.23;85.08;97043.28;30001;982;1886;-61
2022/05/05 02:10:03;;;;;;;;;;;;;;;10.23;85.40;97051.44;30001;982;1882;-61
2022/05/05 02:10:34;;;;;;;;;;;;;;;10.22;85.28;97045.19;30001;982;1873;-62
2022/05/05 02:11:05;;;;;;;;;;;;;;;10.22;85.41;97047.91;30001;983;1872;-62
2022/05/05 02:11:41;;;;;;;;;;;;;;;10.24;85.34;97050.34;30001;983;1872;-61
2022/05/05 02:12:12;;;;;;;;;;;;;;;10.24;85.25;97050.34;30001;983;1872;-61
2022/05/05 02:12:44;;;;;;;;;;;;;;;10.24;84.88;97045.72;30001;983;1886;-61
2022/05/05 02:13:15;;;;;;;;;;;;;;;10.24;85.17;97048.44;30001;983;1881;-61
2022/05/05 02:13:46;;;;;;;;;;;;;;;10.24;84.92;97043.00;30001;983;1819;-60
2022/05/05 02:14:16;;;;;;;;;;;;;;;10.22;85.43;97052.53;30002;791;1014;-60
2022/05/05 02:14:47;;;;;;;;;;;;;;;10.21;85.36;97045.47;30001;983;1886;-62
2022/05/05 02:15:18;;;;;;;;;;;;;;;10.20;85.05;97050.09;30001;983;1881;-62
2022/05/05 02:15:49;;;;;;;;;;;;;;;10.19;85.17;97047.62;30001;983;1873;-61
2022/05/05 02:16:20;;;;;;;;;;;;;;;10.21;85.06;97050.91;30001;982;1873;-61
2022/05/05 02:16:51;;;;;;;;;;;;;;;10.21;85.07;97045.47;30001;982;1886;-60
2022/05/05 02:17:21;;;;;;;;;;;;;;;10.22;85.16;97044.41;30001;982;1882;-61
2022/05/05 02:17:52;;;;;;;;;;;;;;;10.20;85.17;97054.72;30001;982;1886;-61
2022/05/05 02:18:23;;;;;;;;;;;;;;;10.18;85.48;97046.84;30001;982;1882;-61
2022/05/05 02:18:54;;;;;;;;;;;;;;;10.18;85.29;97051.44;30001;983;1885;-61
2022/05/05 02:19:24;;;;;;;;;;;;;;;10.17;85.56;97052.53;30001;983;1881;-60
2022/05/05 02:19:55;;;;;;;;;;;;;;;10.17;85.08;97050.63;30001;983;1886;-61
2022/05/05 02:20:26;;;;;;;;;;;;;;;10.18;85.22;97054.16;30001;983;1868;-61
2022/05/05 02:20:57;;;;;;;;;;;;;;;10.19;85.10;97050.34;30001;983;1877;-60
2022/05/05 02:21:28;;;;;;;;;;;;;;;10.19;85.08;97053.91;30001;983;1868;-61
2022/05/05 02:21:58;;;;;;;;;;;;;;;10.19;85.13;97053.06;30001;983;1877;-61
2022/05/05 02:22:29;;;;;;;;;;;;;;;10.19;85.26;97051.19;30001;983;1882;-61
2022/05/05 02:23:00;;;;;;;;;;;;;;;10.19;84.98;97059.31;30001;982;1886;-60
2022/05/05 02:23:31;;;;;;;;;;;;;;;10.19;85.02;97053.06;30001;982;1882;-61
2022/05/05 02:24:02;;;;;;;;;;;;;;;10.19;84.93;97051.19;30001;982;1886;-62
2022/05/05 02:24:33;;;;;;;;;;;;;;;10.21;85.25;97056.34;30001;982;1882;-61
2022/05/05 02:25:05;;;;;;;;;;;;;;;10.21;84.97;97050.91;30001;982;1886;-61
2022/05/05 02:25:36;;;;;;;;;;;;;;;10.21;84.93;97045.47;30001;982;1882;-61
2022/05/05 02:26:07;;;;;;;;;;;;;;;10.21;85.07;97051.72;30001;983;1872;-61
2022/05/05 02:26:40;;;;;;;;;;;;;;;10.21;84.85;97050.91;30001;983;1872;-61
2022/05/05 02:27:10;;;;;;;;;;;;;;;10.23;84.31;97048.72;30001;983;1886;-61
2022/05/05 02:28:00;;;;;;;;;;;;;;;10.23;84.36;97044.09;30001;983;1868;-61
2022/05/05 02:28:31;;;;;;;;;;;;;;;10.25;83.74;97049.25;30001;983;1877;-60
2022/05/05 02:29:05;;;;;;;;;;;;;;;10.24;83.92;97043.00;30001;983;1881;-62
2022/05/05 02:29:37;;;;;;;;;;;;;;;10.25;83.87;97046.53;30001;983;1886;-62
2022/05/05 02:30:08;;;;;;;;;;;;;;;10.26;84.00;97042.72;30001;983;1881;-61
2022/05/05 02:30:39;;;;;;;;;;;;;;;10.27;83.50;97044.34;30001;982;1886;-60
2022/05/05 02:31:10;;;;;;;;;;;;;;;10.27;83.43;97041.63;30001;982;1868;-60
2022/05/05 02:31:41;;;;;;;;;;;;;;;10.28;83.58;97035.13;30001;982;1877;-60
2022/05/05 02:32:32;;;;;;;;;;;;;;;10.30;83.25;97043.78;30001;959;1782;-61
2022/05/05 02:33:03;;;;;;;;;;;;;;;10.30;82.80;97046.47;30001;982;1873;-61
2022/05/05 02:33:34;;;;;;;;;;;;;;;10.29;82.91;97042.97;30001;983;1881;-60
2022/05/05 02:34:08;;;;;;;;;;;;;;;10.30;82.88;97043.78;30001;983;1885;-60
2022/05/05 02:34:39;;;;;;;;;;;;;;;10.30;83.09;97039.16;30001;983;1881;-61
2022/05/05 02:35:11;;;;;;;;;;;;;;;10.30;83.19;97046.47;30001;983;1886;-61
2022/05/05 02:35:41;;;;;;;;;;;;;;;10.29;83.55;97048.38;30001;983;1881;-60
2022/05/05 02:38:42;;;;;;;;;;;;;;;10.29;83.82;97053.00;30001;982;1873;-60
2022/05/05 02:39:13;;;;;;;;;;;;;;;10.27;83.67;97045.16;30001;982;1886;-61
2022/05/05 02:39:44;;;;;;;;;;;;;;;10.27;83.83;97047.88;30001;982;1882;-63
2022/05/05 02:40:15;;;;;;;;;;;;;;;10.26;83.58;97043.53;30001;982;1886;-61
2022/05/05 02:40:45;;;;;;;;;;;;;;;10.29;84.19;97050.28;30001;982;1882;-60
2022/05/05 02:41:16;;;;;;;;;;;;;;;10.29;83.61;97047.56;30001;983;1885;-61
2022/05/05 02:41:48;;;;;;;;;;;;;;;10.27;84.04;97049.75;30001;983;1881;-59
2022/05/05 02:42:19;;;;;;;;;;;;;;;10.28;84.00;97048.69;30001;983;1886;-62
2022/05/05 02:42:50;;;;;;;;;;;;;;;10.27;83.90;97055.19;30001;983;1868;-61
2022/05/05 02:43:21;;;;;;;;;;;;;;;10.26;83.97;97051.66;30001;983;1864;-61
2022/05/05 02:43:52;;;;;;;;;;;;;;;10.26;84.21;97053.56;30001;983;1881;-61
2022/05/05 02:44:23;;;;;;;;;;;;;;;10.26;84.02;97048.16;30001;983;1886;-60
2022/05/05 02:44:53;;;;;;;;;;;;;;;10.26;84.38;97048.16;30001;983;1881;-61
2022/05/05 02:45:25;;;;;;;;;;;;;;;10.25;83.94;97049.25;30001;982;1886;-61
2022/05/05 02:45:55;;;;;;;;;;;;;;;10.24;84.33;97055.75;30001;982;1882;-60
2022/05/05 02:46:27;;;;;;;;;;;;;;;10.23;84.24;97054.16;30001;982;1886;-61
2022/05/05 02:46:59;;;;;;;;;;;;;;;10.20;84.83;97054.72;30001;982;1882;-61
2022/05/05 02:47:30;;;;;;;;;;;;;;;10.18;85.17;97063.09;30001;982;1886;-61
2022/05/05 02:48:01;;;;;;;;;;;;;;;10.15;85.36;97057.44;30001;982;1882;-60
2022/05/05 02:48:32;;;;;;;;;;;;;;;10.13;85.29;97049.59;30001;982;1873;-61
2022/05/05 02:49:03;;;;;;;;;;;;;;;10.12;85.18;97053.41;30001;983;1872;-61
2022/05/05 02:49:34;;;;;;;;;;;;;;;10.12;85.34;97058.00;30001;983;1886;-61
2022/05/05 02:50:05;;;;;;;;;;;;;;;10.07;85.90;97056.97;30001;983;1881;-59
2022/05/05 02:50:37;;;;;;;;;;;;;;;10.03;85.82;97058.66;30001;980;1896;-60
2022/05/05 02:51:08;;;;;;;;;;;;;;;10.01;85.87;97052.69;30001;983;1881;-61
2022/05/05 02:51:39;;;;;;;;;;;;;;;10.00;85.41;97053.78;30001;983;1886;-60
2022/05/05 02:52:10;;;;;;;;;;;;;;;10.01;85.73;97060.84;30001;983;1881;-61
2022/05/05 02:52:42;;;;;;;;;;;;;;;10.01;85.46;97052.69;30001;971;1905;-60
2022/05/05 02:54:51;;;;;;;;;;;;;;;10.00;85.99;97059.22;30001;982;1873;-61
2022/05/05 02:55:22;;;;;;;;;;;;;;;10.00;85.33;97061.94;30001;986;1885;-62
2022/05/05 02:55:53;;;;;;;;;;;;;;;10.01;85.88;97060.03;30001;983;1881;-61
2022/05/05 02:56:23;;;;;;;;;;;;;;;10.01;85.61;97057.31;30001;983;1885;-62
2022/05/05 02:56:54;;;;;;;;;;;;;;;9.98;86.04;97052.47;30001;983;1881;-61
2022/05/05 02:57:25;;;;;;;;;;;;;;;9.96;85.62;97055.44;30001;983;1886;-60
2022/05/05 02:57:56;;;;;;;;;;;;;;;9.96;85.85;97055.44;30001;983;1881;-61
2022/05/05 02:58:28;;;;;;;;;;;;;;;9.97;85.67;97056.25;30001;983;1872;-61
2022/05/05 02:58:59;;;;;;;;;;;;;;;9.97;85.65;97054.34;30001;983;1859;-61
2022/05/05 02:59:30;;;;;;;;;;;;;;;9.97;85.11;97057.06;30001;983;1886;-60
2022/05/05 03:00:01;;;;;;;;;;;;;;;9.98;85.12;97053.28;30001;983;1881;-60
2022/05/05 03:00:32;;;;;;;;;;;;;;;9.99;84.92;97052.19;30001;982;1886;-60
2022/05/05 03:01:03;;;;;;;;;;;;;;;9.99;84.82;97049.47;30002;982;1882;-61